Nagarote, Nicaragua

8:07 AM CST on October 22, 2014 (GMT -0600)
Augusto Cesar Sandino | Change Station
CLOSE
Current Station
Airport
Location: Managua,
Elevation: 56 m
Nearby Weather Stations

Elev 56 m 12.14 °N, 86.17 °W | Updated 7 minutes ago

Scattered Clouds
Scattered Clouds
26 °C
Feels Like 26 °C
N
7
Wind Variable Wind from SE

Today
High -- | Low -- °C
--% Chance of Precip.
Yesterday
High -- | Low -- °C
Precip. -- mm
5:36 AM 5:24 PM
Waning Crescent, 2% visible
Pressure 1011 hPa
Visibility 10.0 kilometers
Clouds Scattered Clouds 579 m
Scattered Clouds 2133 m
Dew Point 24 °C
Humidity 89%
Rainfall 0.0 mm
Snow Depth Not available.
UV 4 out of 12
Pollen Not available.
Air Quality Not available.
Flu Activity Not available.
METAR MNMG 221400Z 14004KT 9999 SCT019 SCT070 26/24 Q1011 A2987 NOSIG

More Conditions Fewer Conditions

Pressure 1011 hPa
Visibility 10.0 kilometers
Clouds Scattered Clouds 579 m
Scattered Clouds 2133 m
Dew Point 24 °C
Humidity 89%
Rainfall 0.0 mm
Snow Depth Not available.
UV 4 out of 12
Pollen Not available.
Air Quality Not available.
Flu Activity Not available.
METAR MNMG 221400Z 14004KT 9999 SCT019 SCT070 26/24 Q1011 A2987 NOSIG

More Conditions Fewer Conditions

10-Day Weather Forecast

Almanac

Astronomy

Oct. 22, 2014 Rise Set
Actual Time 5:36 AM CST 5:24 PM CST
Civil Twilight 5:15 AM CST 5:45 PM CST
Nautical Twilight 4:50 AM CST 6:10 PM CST
Astronomical Twilight 4:25 AM CST 6:35 PM CST
Moon 4:31 AM CST 4:41 PM CST
Length of Visible Light 12h 30m
Length of Day
11h 47m
Tomorrow will be 0m 37s shorter.
Waning Crescent, 2% of the Moon is Illuminated
Today
Waning Crescent
Oct 23
New
Oct 30
First Quarter
Nov 6
Full
Nov 14
Last Quarter

Yesterday's Extremes

Country Highs Country Lows

Community

WunderPhotos

Upload Photos

1,763,923 photos uploaded!

WunderBlogs® & News

Nearby

Snow Depth

Not available.

Earthquake Activity

City Distance Mag. Time & Date
No recent earthquake activity has been reported nearby.
Minimum magnitude displayed is 2.5.

Coastal Water Temperatures

Place Temperature
No Stations Reporting

Nearby Weather Stations